Elvira+3 — 8598 — position and weather

sailwx.info

Track history (hours):
 
Tides and Currents Weather Stations Pressure Air Temp Water Temp Dewpoint Dewpoint Depression Visibility Wind Speed Wind Dir Waves Ship Positions

Elvira+3

Last reported at 2017-Oct-16 04:41 UTC. Time now 2017-Oct-18 09:46 UTC.
Position N 44°29' E 022°12'.

Length 165 m.

Type: Cargo ship. MMSI: 238493940.

Date/timePositionNaut miles runAvg speedWind from/ knotsBaromVisibWave heightAir tempDewpointWater temp
2017-Oct-16 04:41N 44°29' E 022°12'1 5.9
2017-Oct-16 04:31N 44°29' E 022°11'3 5.9
2017-Oct-16 04:00N 44°29' E 022°07'3 6.1
2017-Oct-16 03:31N 44°31' E 022°04'3 6.2
2017-Oct-16 03:00N 44°34' E 022°02'16 5.6
2017-Oct-16 00:14N 44°40' E 021°42'3 6.1
2017-Oct-15 23:47N 44°42' E 021°39'2 6.1
2017-Oct-15 23:27N 44°43' E 021°37'3 6.5
2017-Oct-15 23:00N 44°46' E 021°35'3 0.8
2017-Oct-15 19:23N 44°46' E 021°30'1 2.2
2017-Oct-15 19:00N 44°46' E 021°29'4 7.1
2017-Oct-15 18:30N 44°46' E 021°24'10 5.6
2017-Oct-15 16:41N 44°45' E 021°10'1 7.0
2017-Oct-15 16:30N 44°44' E 021°09'4 7.2
2017-Oct-15 16:00N 44°43' E 021°04'4 7.3
2017-Oct-15 15:30N 44°43' E 020°59'4 7.3
2017-Oct-15 15:00N 44°40' E 020°55'7 7.3
2017-Oct-15 14:00N 44°40' E 020°45'4 7.4
2017-Oct-15 13:30N 44°43' E 020°42'4 7.1
2017-Oct-15 13:00N 44°45' E 020°38'3 7.0
2017-Oct-15 12:30N 44°49' E 020°39'3 6.2
2017-Oct-15 12:01N 44°51' E 020°36'4 7.3
2017-Oct-15 11:30N 44°50' E 020°31'3 5.4
2017-Oct-15 11:00N 44°50' E 020°28'1 1.5
2017-Oct-15 10:30N 44°50' E 020°29'0 0.0
2017-Oct-15 10:00N 44°50' E 020°29'0 0.0
2017-Oct-15 09:30N 44°50' E 020°29'1 1.4
2017-Oct-15 09:00N 44°50' E 020°28'2 4.8
2017-Oct-15 08:30N 44°48' E 020°26'3 5.8
2017-Oct-15 08:00N 44°47' E 020°22'1 2.1
2017-Oct-15 07:30N 44°48' E 020°23'2 4.3
2017-Oct-15 07:01N 44°48' E 020°26'2 4.5
2017-Oct-15 06:30N 44°50' E 020°28'1 1.2
2017-Oct-15 06:00N 44°50' E 020°27'3 5.1
2017-Oct-15 05:30N 44°48' E 020°25'2 4.0
2017-Oct-15 05:00N 44°47' E 020°22'0 0.2
2017-Oct-15 04:30N 44°47' E 020°22'0 0.1
2017-Oct-15 04:00N 44°47' E 020°22'0 0.0
2017-Oct-15 03:30N 44°47' E 020°22'0 0.0
2017-Oct-15 03:00N 44°47' E 020°22'0 0.0
2017-Oct-15 02:30N 44°47' E 020°22'0 0.0
2017-Oct-15 02:00N 44°47' E 020°22'0 0.0
2017-Oct-15 01:30N 44°47' E 020°22'0 0.0
2017-Oct-15 01:00N 44°47' E 020°22'0 0.0
2017-Oct-15 00:30N 44°47' E 020°22'0 0.0
2017-Oct-15 00:00N 44°47' E 020°22'0 0.0
2017-Oct-14 23:30N 44°47' E 020°22'0 0.0
2017-Oct-14 23:00N 44°47' E 020°22'0 0.0
2017-Oct-14 22:30N 44°47' E 020°22'0 0.0
2017-Oct-14 22:00N 44°47' E 020°22'0 0.0
2017-Oct-14 21:30N 44°47' E 020°22'0 0.0
2017-Oct-14 21:00N 44°47' E 020°22'0 0.0
2017-Oct-14 20:30N 44°47' E 020°22'0 0.1
2017-Oct-14 20:00N 44°47' E 020°22'3 5.2
2017-Oct-14 19:30N 44°45' E 020°20'3 6.3
2017-Oct-14 19:00N 44°42' E 020°18'3 5.6
2017-Oct-14 18:30N 44°40' E 020°16'2 5.0
2017-Oct-14 18:01N 44°42' E 020°14'1 2.5
2017-Oct-14 17:31N 44°42' E 020°12'2 3.9
2017-Oct-14 17:00N 44°41' E 020°10'2 4.2
2017-Oct-14 16:30N 44°42' E 020°07'3 6.9
2017-Oct-14 16:00N 44°41' E 020°02'2 1.1
2017-Oct-14 14:06N 44°42' E 019°60'1 6.4
2017-Oct-14 13:59N 44°41' E 019°58'  
2017-Oct-06 07:11N 44°42' E 019°59'1 1.7
2017-Oct-06 06:28N 44°41' E 019°60'1 2.7
2017-Oct-06 06:00N 44°40' E 019°58'1 1.8
2017-Oct-06 05:30N 44°40' E 019°57'0 0.0
2017-Oct-06 05:00N 44°40' E 019°57'  
Track history (hours):
 
Tides and Currents Weather Stations Pressure Air Temp Water Temp Dewpoint Dewpoint Depression Visibility Wind Speed Wind Dir Waves Ship Positions

Elvira+3

Last reported at 2017-Oct-16 04:41 UTC. Time now 2017-Oct-18 09:46 UTC.
Position N 44°29' E 022°12'.

Length 165 m.

Type: Cargo ship. MMSI: 238493940.

Date/timePositionNaut miles runAvg speedWind from/ knotsBaromVisibWave heightAir tempDewpointWater temp
2017-Oct-16 04:41N 44°29' E 022°12'1 5.9
2017-Oct-16 04:31N 44°29' E 022°11'3 5.9
2017-Oct-16 04:00N 44°29' E 022°07'3 6.1
2017-Oct-16 03:31N 44°31' E 022°04'3 6.2
2017-Oct-16 03:00N 44°34' E 022°02'16 5.6
2017-Oct-16 00:14N 44°40' E 021°42'3 6.1
2017-Oct-15 23:47N 44°42' E 021°39'2 6.1
2017-Oct-15 23:27N 44°43' E 021°37'3 6.5
2017-Oct-15 23:00N 44°46' E 021°35'3 0.8
2017-Oct-15 19:23N 44°46' E 021°30'1 2.2
2017-Oct-15 19:00N 44°46' E 021°29'4 7.1
2017-Oct-15 18:30N 44°46' E 021°24'10 5.6
2017-Oct-15 16:41N 44°45' E 021°10'1 7.0
2017-Oct-15 16:30N 44°44' E 021°09'4 7.2
2017-Oct-15 16:00N 44°43' E 021°04'4 7.3
2017-Oct-15 15:30N 44°43' E 020°59'4 7.3
2017-Oct-15 15:00N 44°40' E 020°55'7 7.3
2017-Oct-15 14:00N 44°40' E 020°45'4 7.4
2017-Oct-15 13:30N 44°43' E 020°42'4 7.1
2017-Oct-15 13:00N 44°45' E 020°38'3 7.0
2017-Oct-15 12:30N 44°49' E 020°39'3 6.2
2017-Oct-15 12:01N 44°51' E 020°36'4 7.3
2017-Oct-15 11:30N 44°50' E 020°31'3 5.4
2017-Oct-15 11:00N 44°50' E 020°28'1 1.5
2017-Oct-15 10:30N 44°50' E 020°29'0 0.0
2017-Oct-15 10:00N 44°50' E 020°29'0 0.0
2017-Oct-15 09:30N 44°50' E 020°29'1 1.4
2017-Oct-15 09:00N 44°50' E 020°28'2 4.8
2017-Oct-15 08:30N 44°48' E 020°26'3 5.8
2017-Oct-15 08:00N 44°47' E 020°22'1 2.1
2017-Oct-15 07:30N 44°48' E 020°23'2 4.3
2017-Oct-15 07:01N 44°48' E 020°26'2 4.5
2017-Oct-15 06:30N 44°50' E 020°28'1 1.2
2017-Oct-15 06:00N 44°50' E 020°27'3 5.1
2017-Oct-15 05:30N 44°48' E 020°25'2 4.0
2017-Oct-15 05:00N 44°47' E 020°22'0 0.2
2017-Oct-15 04:30N 44°47' E 020°22'0 0.1
2017-Oct-15 04:00N 44°47' E 020°22'0 0.0
2017-Oct-15 03:30N 44°47' E 020°22'0 0.0
2017-Oct-15 03:00N 44°47' E 020°22'0 0.0
2017-Oct-15 02:30N 44°47' E 020°22'0 0.0
2017-Oct-15 02:00N 44°47' E 020°22'0 0.0
2017-Oct-15 01:30N 44°47' E 020°22'0 0.0
2017-Oct-15 01:00N 44°47' E 020°22'0 0.0
2017-Oct-15 00:30N 44°47' E 020°22'0 0.0
2017-Oct-15 00:00N 44°47' E 020°22'0 0.0
2017-Oct-14 23:30N 44°47' E 020°22'0 0.0
2017-Oct-14 23:00N 44°47' E 020°22'0 0.0
2017-Oct-14 22:30N 44°47' E 020°22'0 0.0
2017-Oct-14 22:00N 44°47' E 020°22'0 0.0
2017-Oct-14 21:30N 44°47' E 020°22'0 0.0
2017-Oct-14 21:00N 44°47' E 020°22'0 0.0
2017-Oct-14 20:30N 44°47' E 020°22'0 0.1
2017-Oct-14 20:00N 44°47' E 020°22'3 5.2
2017-Oct-14 19:30N 44°45' E 020°20'3 6.3
2017-Oct-14 19:00N 44°42' E 020°18'3 5.6
2017-Oct-14 18:30N 44°40' E 020°16'2 5.0
2017-Oct-14 18:01N 44°42' E 020°14'1 2.5
2017-Oct-14 17:31N 44°42' E 020°12'2 3.9
2017-Oct-14 17:00N 44°41' E 020°10'2 4.2
2017-Oct-14 16:30N 44°42' E 020°07'3 6.9
2017-Oct-14 16:00N 44°41' E 020°02'2 1.1
2017-Oct-14 14:06N 44°42' E 019°60'1 6.4
2017-Oct-14 13:59N 44°41' E 019°58'  
2017-Oct-06 07:11N 44°42' E 019°59'1 1.7
2017-Oct-06 06:28N 44°41' E 019°60'1 2.7
2017-Oct-06 06:00N 44°40' E 019°58'1 1.8
2017-Oct-06 05:30N 44°40' E 019°57'0 0.0
2017-Oct-06 05:00N 44°40' E 019°57'  

Dump ship's entire track history